Grande Italia — IBTF — position and weather

sailwx.info

Track history (hours):
 
Tides and Currents Weather Stations Pressure Air Temp Water Temp Dewpoint Dewpoint Depression Visibility Wind Speed Wind Dir Waves Ship Positions

Grande Italia

Last reported at 2017-Aug-22 21:54 UTC. Time now 2017-Aug-23 23:23 UTC.
Position N 34°02' E 030°54'.

Length 177 m; draft 7.6 m.

Type: Cargo ship. MMSI: 247039300.

Date/timePositionNaut miles runAvg speedWind from/ knotsBaromVisibWave heightAir tempDewpointWater temp
2017-Aug-22 21:54N 34°02' E 030°54'14614.4
2017-Aug-22 11:48N 33°10' E 033°37'3214.4
2017-Aug-22 09:34N 33°01' E 034°14'2314.9
2017-Aug-22 08:03N 32°57' E 034°41'815.0
2017-Aug-22 07:33N 32°55' E 034°50'115.0
2017-Aug-22 07:30N 32°55' E 034°50'7 0.5
2017-Aug-21 16:25N 32°52' E 034°58'0 0.5
2017-Aug-21 15:45N 32°52' E 034°59'410.0
2017-Aug-21 15:23N 32°54' E 034°55'512.2
2017-Aug-21 15:00N 32°51' E 034°50'715.0
2017-Aug-21 14:30N 32°44' E 034°47'815.1
2017-Aug-21 14:00N 32°37' E 034°45'815.1
2017-Aug-21 13:30N 32°30' E 034°42'815.0
2017-Aug-21 13:00N 32°23' E 034°40'714.9
2017-Aug-21 12:30N 32°15' E 034°38'815.1
2017-Aug-21 12:00N 32°08' E 034°35'815.0
2017-Aug-21 11:28N 32°00' E 034°33'1010.6
2017-Aug-21 10:34N 31°51' E 034°37'113.6
2017-Aug-21 10:30N 31°51' E 034°38'2 0.1
2017-Aug-20 11:28N 31°50' E 034°39'0 0.0
2017-Aug-20 10:56N 31°50' E 034°39'0 0.0
2017-Aug-20 09:27N 31°50' E 034°39'1 0.6
2017-Aug-20 07:23N 31°51' E 034°38'1312.8
2017-Aug-20 06:25N 31°54' E 034°24'1517.3
2017-Aug-20 05:32N 32°01' E 034°08'217.4
2017-Aug-20 05:25N 32°01' E 034°06'1017.3
2017-Aug-20 04:51N 32°06' E 033°55'617.1
2017-Aug-20 04:29N 32°09' E 033°49'8517.3
2017-Aug-19 23:33N 33°32' E 033°25'618.0
2017-Aug-19 23:12N 33°38' E 033°23'518.1
2017-Aug-19 22:57N 33°43' E 033°22'1018.1
2017-Aug-19 22:24N 33°52' E 033°19'817.9
2017-Aug-19 21:59N 33°60' E 033°17'2517.9
2017-Aug-19 20:35N 34°24' E 033°08'117.5
2017-Aug-19 20:30N 34°25' E 033°08'917.5
2017-Aug-19 20:00N 34°33' E 033°05'612.5
2017-Aug-19 19:30N 34°39' E 033°02'1 1.9
2017-Aug-19 19:00N 34°39' E 033°01'0 0.0
2017-Aug-19 18:30N 34°39' E 033°01'0 0.0
2017-Aug-19 18:00N 34°39' E 033°01'0 0.0
2017-Aug-19 17:30N 34°39' E 033°01'0 0.0
2017-Aug-19 17:00N 34°39' E 033°01'0 0.0
2017-Aug-19 16:30N 34°39' E 033°01'0 0.0
2017-Aug-19 16:00N 34°39' E 033°01'2 3.4
2017-Aug-19 15:30N 34°39' E 033°03'611.9
2017-Aug-19 15:01N 34°34' E 033°06'1616.2
2017-Aug-19 14:01N 34°29' E 032°47'918.0
2017-Aug-19 13:30N 34°30' E 032°36'917.8
2017-Aug-19 12:59N 34°30' E 032°25'817.7
2017-Aug-19 12:31N 34°30' E 032°15'44716.2
2017-Aug-18 08:52N 37°28' E 023°48'817.1
2017-Aug-18 08:22N 37°36' E 023°43'617.2
2017-Aug-18 08:01N 37°42' E 023°41'917.2
2017-Aug-18 07:31N 37°50' E 023°37'714.1
2017-Aug-18 07:01N 37°57' E 023°36'1 1.8
2017-Aug-18 06:28N 37°58' E 023°36'0 0.0
2017-Aug-18 05:58N 37°58' E 023°36'0 0.0
2017-Aug-18 05:28N 37°58' E 023°36'0 0.0
2017-Aug-18 04:58N 37°58' E 023°36'0 0.0
2017-Aug-18 04:28N 37°58' E 023°36'0 0.0
2017-Aug-18 03:58N 37°58' E 023°36'0 0.0
2017-Aug-18 03:25N 37°58' E 023°36'0 0.0
2017-Aug-18 02:58N 37°58' E 023°36'0 0.0
2017-Aug-18 02:28N 37°58' E 023°36'0 0.0
2017-Aug-18 01:58N 37°58' E 023°36'0 0.0
2017-Aug-18 01:28N 37°58' E 023°36'0 0.0
2017-Aug-18 00:55N 37°58' E 023°36'0 0.0
2017-Aug-18 00:28N 37°58' E 023°36'0 0.0
2017-Aug-17 23:58N 37°58' E 023°36'0 0.0
2017-Aug-17 23:28N 37°58' E 023°36'0 0.0
2017-Aug-17 22:58N 37°58' E 023°36'0 0.0
2017-Aug-17 22:28N 37°58' E 023°36'0 0.0
2017-Aug-17 21:58N 37°58' E 023°36'0 0.0
2017-Aug-17 21:28N 37°58' E 023°36'0 0.0
2017-Aug-17 20:58N 37°58' E 023°36'0 0.0
2017-Aug-17 20:28N 37°58' E 023°36'0 0.0
2017-Aug-17 19:58N 37°58' E 023°36'0 0.0
2017-Aug-17 19:28N 37°58' E 023°36'0 0.0
2017-Aug-17 18:58N 37°58' E 023°36'0 0.1
2017-Aug-17 18:30N 37°58' E 023°36'2 3.7
2017-Aug-17 18:00N 37°56' E 023°36'3 5.5
2017-Aug-17 17:30N 37°53' E 023°36'3 6.5
2017-Aug-17 17:01N 37°51' E 023°39'816.7
2017-Aug-17 16:30N 37°43' E 023°43'816.0
2017-Aug-17 16:00N 37°35' E 023°43'816.9
2017-Aug-17 15:31N 37°27' E 023°40'816.7
2017-Aug-17 15:01N 37°19' E 023°36'816.7
2017-Aug-17 14:31N 37°12' E 023°32'816.5
2017-Aug-17 14:01N 37°04' E 023°27'1216.5
2017-Aug-17 13:16N 36°53' E 023°23'12612.8
2017-Aug-17 03:26N 37°21' E 020°48'716.9
2017-Aug-17 03:01N 37°27' E 020°44'917.1
2017-Aug-17 02:31N 37°34' E 020°39'917.6
2017-Aug-17 02:01N 37°42' E 020°33'917.8
2017-Aug-17 01:31N 37°50' E 020°28'917.5
2017-Aug-17 01:01N 37°57' E 020°22'44217.3
2017-Aug-15 23:32N 43°47' E 014°25'117.1
2017-Aug-15 23:29N 43°48' E 014°24'817.1
2017-Aug-15 23:00N 43°54' E 014°17'816.9
2017-Aug-15 22:31N 43°60' E 014°09'816.9
2017-Aug-15 22:01N 44°06' E 014°01'917.1
2017-Aug-15 21:30N 44°13' E 013°54'817.0
2017-Aug-15 21:01N 44°20' E 013°47'917.0
2017-Aug-15 20:31N 44°27' E 013°41'917.3
2017-Aug-15 20:01N 44°35' E 013°35'917.7
2017-Aug-15 19:31N 44°42' E 013°28'917.3
2017-Aug-15 19:00N 44°50' E 013°22'816.7
2017-Aug-15 18:31N 44°57' E 013°16'816.7
2017-Aug-15 18:00N 45°03' E 013°08'816.3
2017-Aug-15 17:31N 45°11' E 013°03'816.9
2017-Aug-15 17:01N 45°19' E 013°01'816.3
2017-Aug-15 16:31N 45°26' E 013°08'816.5
2017-Aug-15 16:01N 45°31' E 013°17'816.2
2017-Aug-15 15:30N 45°35' E 013°27'714.1
2017-Aug-15 15:00N 45°37' E 013°36'611.9
2017-Aug-15 14:30N 45°33' E 013°43'1 1.2
2017-Aug-15 13:51N 45°33' E 013°44'0 0.0
2017-Aug-15 13:30N 45°33' E 013°44'0 0.0
2017-Aug-15 13:00N 45°33' E 013°44'0 0.0
2017-Aug-15 12:30N 45°33' E 013°44'0 0.0
2017-Aug-15 12:00N 45°33' E 013°44'0 0.0
2017-Aug-15 11:27N 45°33' E 013°44'0 0.0
2017-Aug-15 11:00N 45°33' E 013°44'0 0.0
2017-Aug-15 10:21N 45°33' E 013°44'0 0.0
2017-Aug-15 09:57N 45°33' E 013°44'0 0.0
2017-Aug-15 09:27N 45°33' E 013°44'0 0.0
2017-Aug-15 09:00N 45°33' E 013°44'0 0.0
2017-Aug-15 08:30N 45°33' E 013°44'0 0.0
2017-Aug-15 08:00N 45°33' E 013°44'0 0.0
2017-Aug-15 07:21N 45°33' E 013°44'0 0.0
2017-Aug-15 06:57N 45°33' E 013°44'0 0.0
2017-Aug-15 06:30N 45°33' E 013°44'0 0.0
2017-Aug-15 06:00N 45°33' E 013°44'0 0.0
2017-Aug-15 05:24N 45°33' E 013°44'0 0.0
2017-Aug-15 05:00N 45°33' E 013°44'0 0.0
2017-Aug-15 04:30N 45°33' E 013°44'0 0.0
2017-Aug-15 04:00N 45°33' E 013°44'0 0.0
2017-Aug-15 03:27N 45°33' E 013°44'0 0.0
2017-Aug-15 03:00N 45°33' E 013°44'0 0.0
2017-Aug-15 02:24N 45°33' E 013°44'0 0.0
2017-Aug-15 02:00N 45°33' E 013°44'0 0.0
2017-Aug-15 01:30N 45°33' E 013°44'0 0.0
2017-Aug-15 01:00N 45°33' E 013°44'0 0.0
2017-Aug-15 00:27N 45°33' E 013°44'0 0.0
2017-Aug-15 00:00N 45°33' E 013°44'0 0.0
2017-Aug-14 23:30N 45°33' E 013°44'0 0.0
2017-Aug-14 23:00N 45°33' E 013°44'0 0.0
2017-Aug-14 22:30N 45°33' E 013°44'0 0.0
2017-Aug-14 21:57N 45°33' E 013°44'0 0.0
2017-Aug-14 21:30N 45°33' E 013°44'0 0.0
2017-Aug-14 21:00N 45°33' E 013°44'0 0.0
2017-Aug-14 20:30N 45°33' E 013°44'0 0.0
2017-Aug-14 20:00N 45°33' E 013°44'0 0.0
2017-Aug-14 19:30N 45°33' E 013°44'0 0.0
2017-Aug-14 19:00N 45°33' E 013°44'0 0.0
2017-Aug-14 18:30N 45°33' E 013°44'0 0.0
2017-Aug-14 18:00N 45°33' E 013°44'0 0.0
2017-Aug-14 17:21N 45°33' E 013°44'0 0.0
2017-Aug-14 17:00N 45°33' E 013°44'0 0.0
2017-Aug-14 16:30N 45°33' E 013°44'0 0.0
2017-Aug-14 16:00N 45°33' E 013°44'0 0.0
2017-Aug-14 15:30N 45°33' E 013°44'0 0.0
2017-Aug-14 14:57N 45°33' E 013°44'0 0.0
2017-Aug-14 14:30N 45°33' E 013°44'0 0.0
2017-Aug-14 13:57N 45°33' E 013°44'0 0.0
2017-Aug-14 13:27N 45°33' E 013°44'0 0.0
2017-Aug-14 13:00N 45°33' E 013°44'0 0.0
2017-Aug-14 12:27N 45°33' E 013°44'0 0.0
2017-Aug-14 12:00N 45°33' E 013°44'0 0.0
2017-Aug-14 11:30N 45°33' E 013°44'2 4.1
2017-Aug-14 11:00N 45°34' E 013°41'511.1
2017-Aug-14 10:31N 45°36' E 013°34'714.8
2017-Aug-14 10:01N 45°43' E 013°37'5 9.1
2017-Aug-14 09:30N 45°47' E 013°33'0 0.4
2017-Aug-14 09:00N 45°47' E 013°33'0 0.0
2017-Aug-14 08:27N 45°47' E 013°33'0 0.0
2017-Aug-14 08:00N 45°47' E 013°33'0 0.0
2017-Aug-14 07:30N 45°47' E 013°33'0 0.0
2017-Aug-14 07:00N 45°47' E 013°33'0 0.0
2017-Aug-14 06:30N 45°47' E 013°33'0 0.0
2017-Aug-14 05:57N 45°47' E 013°33'0 0.0
2017-Aug-14 05:24N 45°47' E 013°33'0 0.0
2017-Aug-14 05:00N 45°47' E 013°33'0 0.0
2017-Aug-14 04:30N 45°47' E 013°33'0 0.0
2017-Aug-14 04:00N 45°47' E 013°33'0 0.0
2017-Aug-14 03:30N 45°47' E 013°33'0 0.0
2017-Aug-14 03:00N 45°47' E 013°33'0 0.0
2017-Aug-14 02:30N 45°47' E 013°33'0 0.0
2017-Aug-14 02:00N 45°47' E 013°33'0 0.0
2017-Aug-14 01:30N 45°47' E 013°33'0 0.0
2017-Aug-14 01:00N 45°47' E 013°33'0 0.0
2017-Aug-14 00:27N 45°47' E 013°33'0 0.0
2017-Aug-14 00:00N 45°47' E 013°33'0 0.0
2017-Aug-13 23:30N 45°47' E 013°33'0 0.0
2017-Aug-13 23:00N 45°47' E 013°33'0 0.0
2017-Aug-13 22:30N 45°47' E 013°33'0 0.0
2017-Aug-13 22:00N 45°47' E 013°33'0 0.0
2017-Aug-13 21:30N 45°47' E 013°33'0 0.0
2017-Aug-13 21:00N 45°47' E 013°33'0 0.0
2017-Aug-13 20:30N 45°47' E 013°33'0 0.0
2017-Aug-13 19:54N 45°47' E 013°33'0 0.0
2017-Aug-13 19:30N 45°47' E 013°33'0 0.0
2017-Aug-13 18:57N 45°47' E 013°33'0 0.0
2017-Aug-13 18:30N 45°47' E 013°33'0 0.0
2017-Aug-13 18:00N 45°47' E 013°33'0 0.0
2017-Aug-13 17:30N 45°47' E 013°33'0 0.0
2017-Aug-13 17:00N 45°47' E 013°33'0 0.0
2017-Aug-13 16:30N 45°47' E 013°33'0 0.0
2017-Aug-13 16:00N 45°47' E 013°33'0 0.0
2017-Aug-13 15:30N 45°47' E 013°33'0 0.0
2017-Aug-13 15:00N 45°47' E 013°33'0 0.0
2017-Aug-13 14:30N 45°47' E 013°33'0 0.0
2017-Aug-13 13:54N 45°47' E 013°33'0 0.0
2017-Aug-13 13:30N 45°47' E 013°33'0 0.0
2017-Aug-13 13:00N 45°47' E 013°33'0 0.0
2017-Aug-13 12:30N 45°47' E 013°33'0 0.0
2017-Aug-13 12:00N 45°47' E 013°33'0 0.0
2017-Aug-13 11:27N 45°47' E 013°33'0 0.0
2017-Aug-13 10:57N 45°47' E 013°33'0 0.0
2017-Aug-13 10:30N 45°47' E 013°33'0 0.0
2017-Aug-13 10:00N 45°47' E 013°33'0 0.0
2017-Aug-13 09:27N 45°47' E 013°33'0 0.0
2017-Aug-13 09:00N 45°47' E 013°33'0 0.0
2017-Aug-13 08:30N 45°47' E 013°33'0 0.0
2017-Aug-13 07:57N 45°47' E 013°33'0 0.0
2017-Aug-13 07:30N 45°47' E 013°33'0 0.0
2017-Aug-13 07:00N 45°47' E 013°33'0 0.0
2017-Aug-13 06:27N 45°47' E 013°33'0 0.0
2017-Aug-13 05:57N 45°47' E 013°33'0 0.0
2017-Aug-13 05:30N 45°47' E 013°33'0 0.0
2017-Aug-13 05:00N 45°47' E 013°33'1 1.6
2017-Aug-13 04:30N 45°46' E 013°34'5 9.4
2017-Aug-13 04:00N 45°43' E 013°39'1 1.5
2017-Aug-13 03:28N 45°43' E 013°40'0 0.1
2017-Aug-13 02:58N 45°43' E 013°40'0 0.0
2017-Aug-13 02:28N 45°43' E 013°40'0 0.0
2017-Aug-13 01:58N 45°43' E 013°40'0 0.0
2017-Aug-13 01:30N 45°43' E 013°40'0 0.1
2017-Aug-13 00:58N 45°43' E 013°40'0 0.0
2017-Aug-13 00:28N 45°43' E 013°40'0 0.0
2017-Aug-12 23:58N 45°43' E 013°40'0 0.0
2017-Aug-12 23:28N 45°43' E 013°40'0 0.0
2017-Aug-12 22:58N 45°43' E 013°40'0 0.1
2017-Aug-12 22:28N 45°43' E 013°40'0 0.0
2017-Aug-12 22:00N 45°43' E 013°40'  
Track history (hours):
 
Tides and Currents Weather Stations Pressure Air Temp Water Temp Dewpoint Dewpoint Depression Visibility Wind Speed Wind Dir Waves Ship Positions

Grande Italia

Last reported at 2017-Aug-22 21:54 UTC. Time now 2017-Aug-23 23:23 UTC.
Position N 34°02' E 030°54'.

Length 177 m; draft 7.6 m.

Type: Cargo ship. MMSI: 247039300.

Date/timePositionNaut miles runAvg speedWind from/ knotsBaromVisibWave heightAir tempDewpointWater temp
2017-Aug-22 21:54N 34°02' E 030°54'14614.4
2017-Aug-22 11:48N 33°10' E 033°37'3214.4
2017-Aug-22 09:34N 33°01' E 034°14'2314.9
2017-Aug-22 08:03N 32°57' E 034°41'815.0
2017-Aug-22 07:33N 32°55' E 034°50'115.0
2017-Aug-22 07:30N 32°55' E 034°50'7 0.5
2017-Aug-21 16:25N 32°52' E 034°58'0 0.5
2017-Aug-21 15:45N 32°52' E 034°59'410.0
2017-Aug-21 15:23N 32°54' E 034°55'512.2
2017-Aug-21 15:00N 32°51' E 034°50'715.0
2017-Aug-21 14:30N 32°44' E 034°47'815.1
2017-Aug-21 14:00N 32°37' E 034°45'815.1
2017-Aug-21 13:30N 32°30' E 034°42'815.0
2017-Aug-21 13:00N 32°23' E 034°40'714.9
2017-Aug-21 12:30N 32°15' E 034°38'815.1
2017-Aug-21 12:00N 32°08' E 034°35'815.0
2017-Aug-21 11:28N 32°00' E 034°33'1010.6
2017-Aug-21 10:34N 31°51' E 034°37'113.6
2017-Aug-21 10:30N 31°51' E 034°38'2 0.1
2017-Aug-20 11:28N 31°50' E 034°39'0 0.0
2017-Aug-20 10:56N 31°50' E 034°39'0 0.0
2017-Aug-20 09:27N 31°50' E 034°39'1 0.6
2017-Aug-20 07:23N 31°51' E 034°38'1312.8
2017-Aug-20 06:25N 31°54' E 034°24'1517.3
2017-Aug-20 05:32N 32°01' E 034°08'217.4
2017-Aug-20 05:25N 32°01' E 034°06'1017.3
2017-Aug-20 04:51N 32°06' E 033°55'617.1
2017-Aug-20 04:29N 32°09' E 033°49'8517.3
2017-Aug-19 23:33N 33°32' E 033°25'618.0
2017-Aug-19 23:12N 33°38' E 033°23'518.1
2017-Aug-19 22:57N 33°43' E 033°22'1018.1
2017-Aug-19 22:24N 33°52' E 033°19'817.9
2017-Aug-19 21:59N 33°60' E 033°17'2517.9
2017-Aug-19 20:35N 34°24' E 033°08'117.5
2017-Aug-19 20:30N 34°25' E 033°08'917.5
2017-Aug-19 20:00N 34°33' E 033°05'612.5
2017-Aug-19 19:30N 34°39' E 033°02'1 1.9
2017-Aug-19 19:00N 34°39' E 033°01'0 0.0
2017-Aug-19 18:30N 34°39' E 033°01'0 0.0
2017-Aug-19 18:00N 34°39' E 033°01'0 0.0
2017-Aug-19 17:30N 34°39' E 033°01'0 0.0
2017-Aug-19 17:00N 34°39' E 033°01'0 0.0
2017-Aug-19 16:30N 34°39' E 033°01'0 0.0
2017-Aug-19 16:00N 34°39' E 033°01'2 3.4
2017-Aug-19 15:30N 34°39' E 033°03'611.9
2017-Aug-19 15:01N 34°34' E 033°06'1616.2
2017-Aug-19 14:01N 34°29' E 032°47'918.0
2017-Aug-19 13:30N 34°30' E 032°36'917.8
2017-Aug-19 12:59N 34°30' E 032°25'817.7
2017-Aug-19 12:31N 34°30' E 032°15'44716.2
2017-Aug-18 08:52N 37°28' E 023°48'817.1
2017-Aug-18 08:22N 37°36' E 023°43'617.2
2017-Aug-18 08:01N 37°42' E 023°41'917.2
2017-Aug-18 07:31N 37°50' E 023°37'714.1
2017-Aug-18 07:01N 37°57' E 023°36'1 1.8
2017-Aug-18 06:28N 37°58' E 023°36'0 0.0
2017-Aug-18 05:58N 37°58' E 023°36'0 0.0
2017-Aug-18 05:28N 37°58' E 023°36'0 0.0
2017-Aug-18 04:58N 37°58' E 023°36'0 0.0
2017-Aug-18 04:28N 37°58' E 023°36'0 0.0
2017-Aug-18 03:58N 37°58' E 023°36'0 0.0
2017-Aug-18 03:25N 37°58' E 023°36'0 0.0
2017-Aug-18 02:58N 37°58' E 023°36'0 0.0
2017-Aug-18 02:28N 37°58' E 023°36'0 0.0
2017-Aug-18 01:58N 37°58' E 023°36'0 0.0
2017-Aug-18 01:28N 37°58' E 023°36'0 0.0
2017-Aug-18 00:55N 37°58' E 023°36'0 0.0
2017-Aug-18 00:28N 37°58' E 023°36'0 0.0
2017-Aug-17 23:58N 37°58' E 023°36'0 0.0
2017-Aug-17 23:28N 37°58' E 023°36'0 0.0
2017-Aug-17 22:58N 37°58' E 023°36'0 0.0
2017-Aug-17 22:28N 37°58' E 023°36'0 0.0
2017-Aug-17 21:58N 37°58' E 023°36'0 0.0
2017-Aug-17 21:28N 37°58' E 023°36'0 0.0
2017-Aug-17 20:58N 37°58' E 023°36'0 0.0
2017-Aug-17 20:28N 37°58' E 023°36'0 0.0
2017-Aug-17 19:58N 37°58' E 023°36'0 0.0
2017-Aug-17 19:28N 37°58' E 023°36'0 0.0
2017-Aug-17 18:58N 37°58' E 023°36'0 0.1
2017-Aug-17 18:30N 37°58' E 023°36'2 3.7
2017-Aug-17 18:00N 37°56' E 023°36'3 5.5
2017-Aug-17 17:30N 37°53' E 023°36'3 6.5
2017-Aug-17 17:01N 37°51' E 023°39'816.7
2017-Aug-17 16:30N 37°43' E 023°43'816.0
2017-Aug-17 16:00N 37°35' E 023°43'816.9
2017-Aug-17 15:31N 37°27' E 023°40'816.7
2017-Aug-17 15:01N 37°19' E 023°36'816.7
2017-Aug-17 14:31N 37°12' E 023°32'816.5
2017-Aug-17 14:01N 37°04' E 023°27'1216.5
2017-Aug-17 13:16N 36°53' E 023°23'12612.8
2017-Aug-17 03:26N 37°21' E 020°48'716.9
2017-Aug-17 03:01N 37°27' E 020°44'917.1
2017-Aug-17 02:31N 37°34' E 020°39'917.6
2017-Aug-17 02:01N 37°42' E 020°33'917.8
2017-Aug-17 01:31N 37°50' E 020°28'917.5
2017-Aug-17 01:01N 37°57' E 020°22'44217.3
2017-Aug-15 23:32N 43°47' E 014°25'117.1
2017-Aug-15 23:29N 43°48' E 014°24'817.1
2017-Aug-15 23:00N 43°54' E 014°17'816.9
2017-Aug-15 22:31N 43°60' E 014°09'816.9
2017-Aug-15 22:01N 44°06' E 014°01'917.1
2017-Aug-15 21:30N 44°13' E 013°54'817.0
2017-Aug-15 21:01N 44°20' E 013°47'917.0
2017-Aug-15 20:31N 44°27' E 013°41'917.3
2017-Aug-15 20:01N 44°35' E 013°35'917.7
2017-Aug-15 19:31N 44°42' E 013°28'917.3
2017-Aug-15 19:00N 44°50' E 013°22'816.7
2017-Aug-15 18:31N 44°57' E 013°16'816.7
2017-Aug-15 18:00N 45°03' E 013°08'816.3
2017-Aug-15 17:31N 45°11' E 013°03'816.9
2017-Aug-15 17:01N 45°19' E 013°01'816.3
2017-Aug-15 16:31N 45°26' E 013°08'816.5
2017-Aug-15 16:01N 45°31' E 013°17'816.2
2017-Aug-15 15:30N 45°35' E 013°27'714.1
2017-Aug-15 15:00N 45°37' E 013°36'611.9
2017-Aug-15 14:30N 45°33' E 013°43'1 1.2
2017-Aug-15 13:51N 45°33' E 013°44'0 0.0
2017-Aug-15 13:30N 45°33' E 013°44'0 0.0
2017-Aug-15 13:00N 45°33' E 013°44'0 0.0
2017-Aug-15 12:30N 45°33' E 013°44'0 0.0
2017-Aug-15 12:00N 45°33' E 013°44'0 0.0
2017-Aug-15 11:27N 45°33' E 013°44'0 0.0
2017-Aug-15 11:00N 45°33' E 013°44'0 0.0
2017-Aug-15 10:21N 45°33' E 013°44'0 0.0
2017-Aug-15 09:57N 45°33' E 013°44'0 0.0
2017-Aug-15 09:27N 45°33' E 013°44'0 0.0
2017-Aug-15 09:00N 45°33' E 013°44'0 0.0
2017-Aug-15 08:30N 45°33' E 013°44'0 0.0
2017-Aug-15 08:00N 45°33' E 013°44'0 0.0
2017-Aug-15 07:21N 45°33' E 013°44'0 0.0
2017-Aug-15 06:57N 45°33' E 013°44'0 0.0
2017-Aug-15 06:30N 45°33' E 013°44'0 0.0
2017-Aug-15 06:00N 45°33' E 013°44'0 0.0
2017-Aug-15 05:24N 45°33' E 013°44'0 0.0
2017-Aug-15 05:00N 45°33' E 013°44'0 0.0
2017-Aug-15 04:30N 45°33' E 013°44'0 0.0
2017-Aug-15 04:00N 45°33' E 013°44'0 0.0
2017-Aug-15 03:27N 45°33' E 013°44'0 0.0
2017-Aug-15 03:00N 45°33' E 013°44'0 0.0
2017-Aug-15 02:24N 45°33' E 013°44'0 0.0
2017-Aug-15 02:00N 45°33' E 013°44'0 0.0
2017-Aug-15 01:30N 45°33' E 013°44'0 0.0
2017-Aug-15 01:00N 45°33' E 013°44'0 0.0
2017-Aug-15 00:27N 45°33' E 013°44'0 0.0
2017-Aug-15 00:00N 45°33' E 013°44'0 0.0
2017-Aug-14 23:30N 45°33' E 013°44'0 0.0
2017-Aug-14 23:00N 45°33' E 013°44'0 0.0
2017-Aug-14 22:30N 45°33' E 013°44'0 0.0
2017-Aug-14 21:57N 45°33' E 013°44'0 0.0
2017-Aug-14 21:30N 45°33' E 013°44'0 0.0
2017-Aug-14 21:00N 45°33' E 013°44'0 0.0
2017-Aug-14 20:30N 45°33' E 013°44'0 0.0
2017-Aug-14 20:00N 45°33' E 013°44'0 0.0
2017-Aug-14 19:30N 45°33' E 013°44'0 0.0
2017-Aug-14 19:00N 45°33' E 013°44'0 0.0
2017-Aug-14 18:30N 45°33' E 013°44'0 0.0
2017-Aug-14 18:00N 45°33' E 013°44'0 0.0
2017-Aug-14 17:21N 45°33' E 013°44'0 0.0
2017-Aug-14 17:00N 45°33' E 013°44'0 0.0
2017-Aug-14 16:30N 45°33' E 013°44'0 0.0
2017-Aug-14 16:00N 45°33' E 013°44'0 0.0
2017-Aug-14 15:30N 45°33' E 013°44'0 0.0
2017-Aug-14 14:57N 45°33' E 013°44'0 0.0
2017-Aug-14 14:30N 45°33' E 013°44'0 0.0
2017-Aug-14 13:57N 45°33' E 013°44'0 0.0
2017-Aug-14 13:27N 45°33' E 013°44'0 0.0
2017-Aug-14 13:00N 45°33' E 013°44'0 0.0
2017-Aug-14 12:27N 45°33' E 013°44'0 0.0
2017-Aug-14 12:00N 45°33' E 013°44'0 0.0
2017-Aug-14 11:30N 45°33' E 013°44'2 4.1
2017-Aug-14 11:00N 45°34' E 013°41'511.1
2017-Aug-14 10:31N 45°36' E 013°34'714.8
2017-Aug-14 10:01N 45°43' E 013°37'5 9.1
2017-Aug-14 09:30N 45°47' E 013°33'0 0.4
2017-Aug-14 09:00N 45°47' E 013°33'0 0.0
2017-Aug-14 08:27N 45°47' E 013°33'0 0.0
2017-Aug-14 08:00N 45°47' E 013°33'0 0.0
2017-Aug-14 07:30N 45°47' E 013°33'0 0.0
2017-Aug-14 07:00N 45°47' E 013°33'0 0.0
2017-Aug-14 06:30N 45°47' E 013°33'0 0.0
2017-Aug-14 05:57N 45°47' E 013°33'0 0.0
2017-Aug-14 05:24N 45°47' E 013°33'0 0.0
2017-Aug-14 05:00N 45°47' E 013°33'0 0.0
2017-Aug-14 04:30N 45°47' E 013°33'0 0.0
2017-Aug-14 04:00N 45°47' E 013°33'0 0.0
2017-Aug-14 03:30N 45°47' E 013°33'0 0.0
2017-Aug-14 03:00N 45°47' E 013°33'0 0.0
2017-Aug-14 02:30N 45°47' E 013°33'0 0.0
2017-Aug-14 02:00N 45°47' E 013°33'0 0.0
2017-Aug-14 01:30N 45°47' E 013°33'0 0.0
2017-Aug-14 01:00N 45°47' E 013°33'0 0.0
2017-Aug-14 00:27N 45°47' E 013°33'0 0.0
2017-Aug-14 00:00N 45°47' E 013°33'0 0.0
2017-Aug-13 23:30N 45°47' E 013°33'0 0.0
2017-Aug-13 23:00N 45°47' E 013°33'0 0.0
2017-Aug-13 22:30N 45°47' E 013°33'0 0.0
2017-Aug-13 22:00N 45°47' E 013°33'0 0.0
2017-Aug-13 21:30N 45°47' E 013°33'0 0.0
2017-Aug-13 21:00N 45°47' E 013°33'0 0.0
2017-Aug-13 20:30N 45°47' E 013°33'0 0.0
2017-Aug-13 19:54N 45°47' E 013°33'0 0.0
2017-Aug-13 19:30N 45°47' E 013°33'0 0.0
2017-Aug-13 18:57N 45°47' E 013°33'0 0.0
2017-Aug-13 18:30N 45°47' E 013°33'0 0.0
2017-Aug-13 18:00N 45°47' E 013°33'0 0.0
2017-Aug-13 17:30N 45°47' E 013°33'0 0.0
2017-Aug-13 17:00N 45°47' E 013°33'0 0.0
2017-Aug-13 16:30N 45°47' E 013°33'0 0.0
2017-Aug-13 16:00N 45°47' E 013°33'0 0.0
2017-Aug-13 15:30N 45°47' E 013°33'0 0.0
2017-Aug-13 15:00N 45°47' E 013°33'0 0.0
2017-Aug-13 14:30N 45°47' E 013°33'0 0.0
2017-Aug-13 13:54N 45°47' E 013°33'0 0.0
2017-Aug-13 13:30N 45°47' E 013°33'0 0.0
2017-Aug-13 13:00N 45°47' E 013°33'0 0.0
2017-Aug-13 12:30N 45°47' E 013°33'0 0.0
2017-Aug-13 12:00N 45°47' E 013°33'0 0.0
2017-Aug-13 11:27N 45°47' E 013°33'0 0.0
2017-Aug-13 10:57N 45°47' E 013°33'0 0.0
2017-Aug-13 10:30N 45°47' E 013°33'0 0.0
2017-Aug-13 10:00N 45°47' E 013°33'0 0.0
2017-Aug-13 09:27N 45°47' E 013°33'0 0.0
2017-Aug-13 09:00N 45°47' E 013°33'0 0.0
2017-Aug-13 08:30N 45°47' E 013°33'0 0.0
2017-Aug-13 07:57N 45°47' E 013°33'0 0.0
2017-Aug-13 07:30N 45°47' E 013°33'0 0.0
2017-Aug-13 07:00N 45°47' E 013°33'0 0.0
2017-Aug-13 06:27N 45°47' E 013°33'0 0.0
2017-Aug-13 05:57N 45°47' E 013°33'0 0.0
2017-Aug-13 05:30N 45°47' E 013°33'0 0.0
2017-Aug-13 05:00N 45°47' E 013°33'1 1.6
2017-Aug-13 04:30N 45°46' E 013°34'5 9.4
2017-Aug-13 04:00N 45°43' E 013°39'1 1.5
2017-Aug-13 03:28N 45°43' E 013°40'0 0.1
2017-Aug-13 02:58N 45°43' E 013°40'0 0.0
2017-Aug-13 02:28N 45°43' E 013°40'0 0.0
2017-Aug-13 01:58N 45°43' E 013°40'0 0.0
2017-Aug-13 01:30N 45°43' E 013°40'0 0.1
2017-Aug-13 00:58N 45°43' E 013°40'0 0.0
2017-Aug-13 00:28N 45°43' E 013°40'0 0.0
2017-Aug-12 23:58N 45°43' E 013°40'0 0.0
2017-Aug-12 23:28N 45°43' E 013°40'0 0.0
2017-Aug-12 22:58N 45°43' E 013°40'0 0.1
2017-Aug-12 22:28N 45°43' E 013°40'0 0.0
2017-Aug-12 22:00N 45°43' E 013°40'  

Dump ship's entire track history